sensor_id;sensor_type;location;lat;lon;timestamp;P1;durP1;ratioP1;P2;durP2;ratioP2
25962;SDS011;13760;52.588;13.406;2023-08-12T00:01:09;7.80;;;4.13;;
25962;SDS011;13760;52.588;13.406;2023-08-12T00:03:34;4.97;;;3.92;;
25962;SDS011;13760;52.588;13.406;2023-08-12T00:06:00;8.90;;;4.45;;
25962;SDS011;13760;52.588;13.406;2023-08-12T00:08:26;5.22;;;4.20;;
25962;SDS011;13760;52.588;13.406;2023-08-12T00:10:52;7.68;;;4.28;;
25962;SDS011;13760;52.588;13.406;2023-08-12T00:13:18;7.07;;;4.88;;
25962;SDS011;13760;52.588;13.406;2023-08-12T00:15:44;8.80;;;4.50;;
25962;SDS011;13760;52.588;13.406;2023-08-12T00:18:09;7.68;;;4.43;;
25962;SDS011;13760;52.588;13.406;2023-08-12T00:20:35;6.97;;;4.90;;
25962;SDS011;13760;52.588;13.406;2023-08-12T00:23:03;7.07;;;4.93;;
25962;SDS011;13760;52.588;13.406;2023-08-12T00:25:29;6.63;;;4.40;;
25962;SDS011;13760;52.588;13.406;2023-08-12T00:27:54;7.30;;;4.57;;
25962;SDS011;13760;52.588;13.406;2023-08-12T00:30:20;6.93;;;4.63;;
25962;SDS011;13760;52.588;13.406;2023-08-12T00:32:46;6.85;;;4.38;;
25962;SDS011;13760;52.588;13.406;2023-08-12T00:35:11;6.32;;;4.60;;
25962;SDS011;13760;52.588;13.406;2023-08-12T00:37:37;8.02;;;4.90;;
25962;SDS011;13760;52.588;13.406;2023-08-12T00:40:03;8.10;;;4.50;;
25962;SDS011;13760;52.588;13.406;2023-08-12T00:42:30;6.03;;;4.30;;
25962;SDS011;13760;52.588;13.406;2023-08-12T00:44:56;5.90;;;4.47;;
25962;SDS011;13760;52.588;13.406;2023-08-12T00:47:23;8.15;;;4.30;;
25962;SDS011;13760;52.588;13.406;2023-08-12T00:49:48;6.90;;;4.40;;
25962;SDS011;13760;52.588;13.406;2023-08-12T00:52:14;8.10;;;4.63;;
25962;SDS011;13760;52.588;13.406;2023-08-12T00:54:41;6.55;;;4.45;;
25962;SDS011;13760;52.588;13.406;2023-08-12T00:57:12;6.05;;;4.50;;
25962;SDS011;13760;52.588;13.406;2023-08-12T00:59:41;5.63;;;4.15;;
25962;SDS011;13760;52.588;13.406;2023-08-12T01:02:09;9.95;;;4.20;;
25962;SDS011;13760;52.588;13.406;2023-08-12T01:04:38;7.13;;;4.90;;
25962;SDS011;13760;52.588;13.406;2023-08-12T01:07:05;6.18;;;4.50;;
25962;SDS011;13760;52.588;13.406;2023-08-12T01:09:37;7.97;;;3.97;;
25962;SDS011;13760;52.588;13.406;2023-08-12T01:12:52;6.78;;;4.03;;
25962;SDS011;13760;52.588;13.406;2023-08-12T01:15:24;6.25;;;4.15;;
25962;SDS011;13760;52.588;13.406;2023-08-12T01:17:51;7.35;;;4.30;;
25962;SDS011;13760;52.588;13.406;2023-08-12T01:20:22;6.22;;;3.60;;
25962;SDS011;13760;52.588;13.406;2023-08-12T01:23:13;7.18;;;4.22;;
25962;SDS011;13760;52.588;13.406;2023-08-12T01:25:38;6.10;;;4.60;;
25962;SDS011;13760;52.588;13.406;2023-08-12T01:28:05;6.05;;;3.90;;
25962;SDS011;13760;52.588;13.406;2023-08-12T01:30:30;5.90;;;4.05;;
25962;SDS011;13760;52.588;13.406;2023-08-12T01:33:00;5.07;;;3.60;;
25962;SDS011;13760;52.588;13.406;2023-08-12T01:35:33;7.05;;;3.90;;
25962;SDS011;13760;52.588;13.406;2023-08-12T01:38:03;4.93;;;3.70;;
25962;SDS011;13760;52.588;13.406;2023-08-12T01:40:32;6.03;;;4.03;;
25962;SDS011;13760;52.588;13.406;2023-08-12T01:42:59;6.32;;;4.10;;
25962;SDS011;13760;52.588;13.406;2023-08-12T01:45:26;6.95;;;3.95;;
25962;SDS011;13760;52.588;13.406;2023-08-12T01:47:52;7.93;;;4.10;;
25962;SDS011;13760;52.588;13.406;2023-08-12T01:50:17;6.38;;;3.97;;
25962;SDS011;13760;52.588;13.406;2023-08-12T01:52:44;5.40;;;4.07;;
25962;SDS011;13760;52.588;13.406;2023-08-12T01:55:09;6.72;;;4.32;;
25962;SDS011;13760;52.588;13.406;2023-08-12T01:57:35;6.78;;;4.18;;
25962;SDS011;13760;52.588;13.406;2023-08-12T02:00:01;5.32;;;3.85;;
25962;SDS011;13760;52.588;13.406;2023-08-12T02:02:27;5.28;;;4.45;;
25962;SDS011;13760;52.588;13.406;2023-08-12T02:04:52;6.53;;;4.18;;
25962;SDS011;13760;52.588;13.406;2023-08-12T02:07:18;4.95;;;3.65;;
25962;SDS011;13760;52.588;13.406;2023-08-12T02:09:44;8.43;;;4.05;;
25962;SDS011;13760;52.588;13.406;2023-08-12T02:12:09;5.22;;;4.13;;
25962;SDS011;13760;52.588;13.406;2023-08-12T02:14:35;7.60;;;4.05;;
25962;SDS011;13760;52.588;13.406;2023-08-12T02:17:01;7.25;;;3.70;;
25962;SDS011;13760;52.588;13.406;2023-08-12T02:19:30;4.70;;;3.80;;
25962;SDS011;13760;52.588;13.406;2023-08-12T02:21:57;6.97;;;4.20;;
25962;SDS011;13760;52.588;13.406;2023-08-12T02:24:22;6.07;;;3.80;;
25962;SDS011;13760;52.588;13.406;2023-08-12T02:26:48;7.80;;;4.10;;
25962;SDS011;13760;52.588;13.406;2023-08-12T02:29:13;4.63;;;3.92;;
25962;SDS011;13760;52.588;13.406;2023-08-12T02:31:39;5.90;;;4.03;;
25962;SDS011;13760;52.588;13.406;2023-08-12T02:34:05;7.13;;;3.83;;
25962;SDS011;13760;52.588;13.406;2023-08-12T02:36:35;8.23;;;4.25;;
25962;SDS011;13760;52.588;13.406;2023-08-12T02:39:03;6.55;;;3.67;;
25962;SDS011;13760;52.588;13.406;2023-08-12T02:41:45;6.05;;;3.83;;
25962;SDS011;13760;52.588;13.406;2023-08-12T02:44:11;7.30;;;4.30;;
25962;SDS011;13760;52.588;13.406;2023-08-12T02:46:37;7.57;;;4.07;;
25962;SDS011;13760;52.588;13.406;2023-08-12T02:49:02;6.57;;;3.85;;
25962;SDS011;13760;52.588;13.406;2023-08-12T02:51:28;4.72;;;4.00;;
25962;SDS011;13760;52.588;13.406;2023-08-12T02:53:53;8.18;;;4.00;;
25962;SDS011;13760;52.588;13.406;2023-08-12T02:56:19;5.68;;;3.72;;
25962;SDS011;13760;52.588;13.406;2023-08-12T02:58:44;7.20;;;4.13;;
25962;SDS011;13760;52.588;13.406;2023-08-12T03:01:10;8.50;;;4.45;;
25962;SDS011;13760;52.588;13.406;2023-08-12T03:03:35;6.75;;;4.20;;
25962;SDS011;13760;52.588;13.406;2023-08-12T03:06:01;6.20;;;4.03;;
25962;SDS011;13760;52.588;13.406;2023-08-12T03:08:27;6.63;;;4.53;;
25962;SDS011;13760;52.588;13.406;2023-08-12T03:10:59;6.95;;;4.40;;
25962;SDS011;13760;52.588;13.406;2023-08-12T03:13:25;7.65;;;4.45;;
25962;SDS011;13760;52.588;13.406;2023-08-12T03:15:51;5.90;;;4.05;;
25962;SDS011;13760;52.588;13.406;2023-08-12T03:18:17;7.35;;;4.50;;
25962;SDS011;13760;52.588;13.406;2023-08-12T03:20:42;6.22;;;4.15;;
25962;SDS011;13760;52.588;13.406;2023-08-12T03:23:08;7.97;;;4.18;;
25962;SDS011;13760;52.588;13.406;2023-08-12T03:25:34;6.60;;;4.35;;
25962;SDS011;13760;52.588;13.406;2023-08-12T03:27:59;10.90;;;4.10;;
25962;SDS011;13760;52.588;13.406;2023-08-12T03:30:24;8.38;;;4.35;;
25962;SDS011;13760;52.588;13.406;2023-08-12T03:32:51;8.63;;;4.82;;
25962;SDS011;13760;52.588;13.406;2023-08-12T03:35:17;5.50;;;4.22;;
25962;SDS011;13760;52.588;13.406;2023-08-12T03:37:43;6.32;;;4.20;;
25962;SDS011;13760;52.588;13.406;2023-08-12T03:40:08;6.88;;;4.18;;
25962;SDS011;13760;52.588;13.406;2023-08-12T03:42:34;9.10;;;4.47;;
25962;SDS011;13760;52.588;13.406;2023-08-12T03:45:00;4.65;;;4.15;;
25962;SDS011;13760;52.588;13.406;2023-08-12T03:47:25;4.78;;;4.13;;
25962;SDS011;13760;52.588;13.406;2023-08-12T03:49:52;5.93;;;4.22;;
25962;SDS011;13760;52.588;13.406;2023-08-12T03:52:18;4.80;;;4.20;;
25962;SDS011;13760;52.588;13.406;2023-08-12T03:54:43;5.03;;;4.40;;
25962;SDS011;13760;52.588;13.406;2023-08-12T03:57:09;5.97;;;4.38;;
25962;SDS011;13760;52.588;13.406;2023-08-12T03:59:35;6.35;;;4.20;;
25962;SDS011;13760;52.588;13.406;2023-08-12T04:02:01;6.53;;;4.82;;
25962;SDS011;13760;52.588;13.406;2023-08-12T04:04:27;7.07;;;4.40;;
25962;SDS011;13760;52.588;13.406;2023-08-12T04:06:52;5.75;;;4.15;;
25962;SDS011;13760;52.588;13.406;2023-08-12T04:09:18;8.45;;;4.32;;
25962;SDS011;13760;52.588;13.406;2023-08-12T04:11:44;8.35;;;4.78;;
25962;SDS011;13760;52.588;13.406;2023-08-12T04:14:11;7.20;;;5.00;;
25962;SDS011;13760;52.588;13.406;2023-08-12T04:16:38;4.93;;;4.00;;
25962;SDS011;13760;52.588;13.406;2023-08-12T04:19:04;7.03;;;4.50;;
25962;SDS011;13760;52.588;13.406;2023-08-12T04:21:29;7.00;;;4.75;;
25962;SDS011;13760;52.588;13.406;2023-08-12T04:23:55;6.47;;;4.50;;
25962;SDS011;13760;52.588;13.406;2023-08-12T04:26:20;7.15;;;4.35;;
25962;SDS011;13760;52.588;13.406;2023-08-12T04:28:46;7.53;;;4.22;;
25962;SDS011;13760;52.588;13.406;2023-08-12T04:31:14;6.47;;;4.38;;
25962;SDS011;13760;52.588;13.406;2023-08-12T04:33:40;7.25;;;4.32;;
25962;SDS011;13760;52.588;13.406;2023-08-12T04:36:06;7.53;;;4.53;;
25962;SDS011;13760;52.588;13.406;2023-08-12T04:38:31;7.43;;;4.38;;
25962;SDS011;13760;52.588;13.406;2023-08-12T04:40:57;5.60;;;4.55;;
25962;SDS011;13760;52.588;13.406;2023-08-12T04:43:23;8.27;;;4.68;;
25962;SDS011;13760;52.588;13.406;2023-08-12T04:45:48;6.72;;;4.55;;
25962;SDS011;13760;52.588;13.406;2023-08-12T04:48:14;6.50;;;4.55;;
25962;SDS011;13760;52.588;13.406;2023-08-12T04:50:41;6.32;;;4.70;;
25962;SDS011;13760;52.588;13.406;2023-08-12T04:53:07;6.93;;;4.65;;
25962;SDS011;13760;52.588;13.406;2023-08-12T04:55:34;5.35;;;4.32;;
25962;SDS011;13760;52.588;13.406;2023-08-12T04:58:01;7.50;;;4.30;;
25962;SDS011;13760;52.588;13.406;2023-08-12T05:00:27;4.68;;;4.13;;
25962;SDS011;13760;52.588;13.406;2023-08-12T05:02:53;5.85;;;4.38;;
25962;SDS011;13760;52.588;13.406;2023-08-12T05:05:19;7.10;;;4.55;;
25962;SDS011;13760;52.588;13.406;2023-08-12T05:07:44;10.98;;;4.43;;
25962;SDS011;13760;52.588;13.406;2023-08-12T05:10:14;6.50;;;4.10;;
25962;SDS011;13760;52.588;13.406;2023-08-12T05:12:43;5.57;;;4.22;;
25962;SDS011;13760;52.588;13.406;2023-08-12T05:15:09;4.82;;;3.60;;
25962;SDS011;13760;52.588;13.406;2023-08-12T05:17:35;5.97;;;3.88;;
25962;SDS011;13760;52.588;13.406;2023-08-12T05:20:01;11.07;;;3.92;;
25962;SDS011;13760;52.588;13.406;2023-08-12T05:22:27;6.05;;;3.60;;
25962;SDS011;13760;52.588;13.406;2023-08-12T05:24:52;4.15;;;3.65;;
25962;SDS011;13760;52.588;13.406;2023-08-12T05:27:18;4.85;;;3.78;;
25962;SDS011;13760;52.588;13.406;2023-08-12T05:29:43;4.65;;;3.50;;
25962;SDS011;13760;52.588;13.406;2023-08-12T05:32:09;10.75;;;3.80;;
25962;SDS011;13760;52.588;13.406;2023-08-12T05:34:34;6.00;;;3.50;;
25962;SDS011;13760;52.588;13.406;2023-08-12T05:37:00;5.75;;;3.53;;
25962;SDS011;13760;52.588;13.406;2023-08-12T05:39:25;5.45;;;3.72;;
25962;SDS011;13760;52.588;13.406;2023-08-12T05:41:51;5.05;;;3.70;;
25962;SDS011;13760;52.588;13.406;2023-08-12T05:44:17;5.43;;;3.70;;
25962;SDS011;13760;52.588;13.406;2023-08-12T05:46:42;6.75;;;3.53;;
25962;SDS011;13760;52.588;13.406;2023-08-12T05:49:08;7.47;;;4.30;;
25962;SDS011;13760;52.588;13.406;2023-08-12T05:51:34;7.07;;;4.00;;
25962;SDS011;13760;52.588;13.406;2023-08-12T05:54:00;5.57;;;3.60;;
25962;SDS011;13760;52.588;13.406;2023-08-12T05:56:25;4.03;;;3.63;;
25962;SDS011;13760;52.588;13.406;2023-08-12T05:58:51;6.13;;;3.45;;
25962;SDS011;13760;52.588;13.406;2023-08-12T06:01:17;4.53;;;3.65;;
25962;SDS011;13760;52.588;13.406;2023-08-12T06:03:42;6.63;;;3.50;;
25962;SDS011;13760;52.588;13.406;2023-08-12T06:06:08;7.85;;;3.35;;
25962;SDS011;13760;52.588;13.406;2023-08-12T06:08:34;6.78;;;3.15;;
25962;SDS011;13760;52.588;13.406;2023-08-12T06:10:59;10.75;;;3.53;;
25962;SDS011;13760;52.588;13.406;2023-08-12T06:13:25;5.80;;;3.47;;
25962;SDS011;13760;52.588;13.406;2023-08-12T06:15:51;5.60;;;3.47;;
25962;SDS011;13760;52.588;13.406;2023-08-12T06:18:16;9.48;;;3.40;;
25962;SDS011;13760;52.588;13.406;2023-08-12T06:20:42;8.40;;;3.63;;
25962;SDS011;13760;52.588;13.406;2023-08-12T06:23:07;5.05;;;3.72;;
25962;SDS011;13760;52.588;13.406;2023-08-12T06:25:33;7.78;;;3.50;;
25962;SDS011;13760;52.588;13.406;2023-08-12T06:28:01;5.32;;;3.53;;
25962;SDS011;13760;52.588;13.406;2023-08-12T06:30:29;8.25;;;3.50;;
25962;SDS011;13760;52.588;13.406;2023-08-12T06:32:55;5.45;;;3.75;;
25962;SDS011;13760;52.588;13.406;2023-08-12T06:35:21;5.07;;;3.40;;
25962;SDS011;13760;52.588;13.406;2023-08-12T06:37:46;6.57;;;3.60;;
25962;SDS011;13760;52.588;13.406;2023-08-12T06:40:12;4.30;;;3.22;;
25962;SDS011;13760;52.588;13.406;2023-08-12T06:42:37;9.48;;;3.70;;
25962;SDS011;13760;52.588;13.406;2023-08-12T06:45:03;7.60;;;3.65;;
25962;SDS011;13760;52.588;13.406;2023-08-12T06:47:29;7.95;;;3.58;;
25962;SDS011;13760;52.588;13.406;2023-08-12T06:49:55;8.18;;;3.58;;
25962;SDS011;13760;52.588;13.406;2023-08-12T06:52:20;4.32;;;3.40;;
25962;SDS011;13760;52.588;13.406;2023-08-12T06:54:46;5.07;;;3.40;;
25962;SDS011;13760;52.588;13.406;2023-08-12T06:57:11;7.75;;;3.40;;
25962;SDS011;13760;52.588;13.406;2023-08-12T06:59:37;7.32;;;3.75;;
25962;SDS011;13760;52.588;13.406;2023-08-12T07:02:09;8.63;;;3.30;;
25962;SDS011;13760;52.588;13.406;2023-08-12T07:04:35;9.23;;;3.90;;
25962;SDS011;13760;52.588;13.406;2023-08-12T07:07:00;7.25;;;3.35;;
25962;SDS011;13760;52.588;13.406;2023-08-12T07:09:26;6.97;;;3.63;;
25962;SDS011;13760;52.588;13.406;2023-08-12T07:11:51;5.88;;;3.58;;
25962;SDS011;13760;52.588;13.406;2023-08-12T07:14:17;5.47;;;3.58;;
25962;SDS011;13760;52.588;13.406;2023-08-12T07:16:42;6.88;;;3.60;;
25962;SDS011;13760;52.588;13.406;2023-08-12T07:19:08;8.13;;;3.67;;
25962;SDS011;13760;52.588;13.406;2023-08-12T07:21:37;6.90;;;3.65;;
25962;SDS011;13760;52.588;13.406;2023-08-12T07:24:03;4.95;;;3.42;;
25962;SDS011;13760;52.588;13.406;2023-08-12T07:26:28;7.45;;;3.72;;
25962;SDS011;13760;52.588;13.406;2023-08-12T07:28:54;5.47;;;3.47;;
25962;SDS011;13760;52.588;13.406;2023-08-12T07:31:21;7.30;;;3.70;;
25962;SDS011;13760;52.588;13.406;2023-08-12T07:33:46;6.28;;;3.28;;
25962;SDS011;13760;52.588;13.406;2023-08-12T07:36:12;4.57;;;3.53;;
25962;SDS011;13760;52.588;13.406;2023-08-12T07:38:37;6.60;;;3.70;;
25962;SDS011;13760;52.588;13.406;2023-08-12T07:41:10;6.47;;;3.83;;
25962;SDS011;13760;52.588;13.406;2023-08-12T07:43:36;5.72;;;3.30;;
25962;SDS011;13760;52.588;13.406;2023-08-12T07:46:01;7.32;;;3.30;;
25962;SDS011;13760;52.588;13.406;2023-08-12T07:48:27;6.72;;;3.53;;
25962;SDS011;13760;52.588;13.406;2023-08-12T07:50:56;4.30;;;3.30;;
25962;SDS011;13760;52.588;13.406;2023-08-12T07:53:22;5.15;;;3.55;;
25962;SDS011;13760;52.588;13.406;2023-08-12T07:55:48;8.35;;;3.35;;
25962;SDS011;13760;52.588;13.406;2023-08-12T07:58:14;5.47;;;3.28;;
25962;SDS011;13760;52.588;13.406;2023-08-12T08:00:39;9.48;;;3.47;;
25962;SDS011;13760;52.588;13.406;2023-08-12T08:03:05;8.18;;;3.72;;
25962;SDS011;13760;52.588;13.406;2023-08-12T08:05:31;10.65;;;3.80;;
25962;SDS011;13760;52.588;13.406;2023-08-12T08:07:57;8.80;;;3.20;;
25962;SDS011;13760;52.588;13.406;2023-08-12T08:10:22;5.70;;;3.60;;
25962;SDS011;13760;52.588;13.406;2023-08-12T08:12:48;5.10;;;3.05;;
25962;SDS011;13760;52.588;13.406;2023-08-12T08:15:13;5.50;;;3.22;;
25962;SDS011;13760;52.588;13.406;2023-08-12T08:17:39;3.85;;;3.42;;
25962;SDS011;13760;52.588;13.406;2023-08-12T08:20:05;4.43;;;3.25;;
25962;SDS011;13760;52.588;13.406;2023-08-12T08:22:35;5.05;;;3.50;;
25962;SDS011;13760;52.588;13.406;2023-08-12T08:25:01;5.30;;;3.50;;
25962;SDS011;13760;52.588;13.406;2023-08-12T08:27:26;7.53;;;3.90;;
25962;SDS011;13760;52.588;13.406;2023-08-12T08:29:52;6.20;;;3.35;;
25962;SDS011;13760;52.588;13.406;2023-08-12T08:32:18;4.18;;;3.30;;
25962;SDS011;13760;52.588;13.406;2023-08-12T08:34:43;6.93;;;3.42;;
25962;SDS011;13760;52.588;13.406;2023-08-12T08:37:09;6.32;;;3.55;;
25962;SDS011;13760;52.588;13.406;2023-08-12T08:39:35;6.28;;;3.67;;
25962;SDS011;13760;52.588;13.406;2023-08-12T08:42:00;3.45;;;3.10;;
25962;SDS011;13760;52.588;13.406;2023-08-12T08:44:30;6.68;;;3.45;;
25962;SDS011;13760;52.588;13.406;2023-08-12T08:46:56;6.93;;;3.72;;
25962;SDS011;13760;52.588;13.406;2023-08-12T08:49:24;6.30;;;3.67;;
25962;SDS011;13760;52.588;13.406;2023-08-12T08:51:51;5.20;;;4.07;;
25962;SDS011;13760;52.588;13.406;2023-08-12T08:54:17;9.00;;;4.00;;
25962;SDS011;13760;52.588;13.406;2023-08-12T08:56:44;9.75;;;4.32;;
25962;SDS011;13760;52.588;13.406;2023-08-12T08:59:10;6.20;;;4.47;;
25962;SDS011;13760;52.588;13.406;2023-08-12T09:01:35;6.75;;;4.00;;
25962;SDS011;13760;52.588;13.406;2023-08-12T09:04:01;6.72;;;4.10;;
25962;SDS011;13760;52.588;13.406;2023-08-12T09:06:29;4.13;;;3.60;;
25962;SDS011;13760;52.588;13.406;2023-08-12T09:08:55;6.93;;;4.00;;
25962;SDS011;13760;52.588;13.406;2023-08-12T09:11:21;8.45;;;4.40;;
25962;SDS011;13760;52.588;13.406;2023-08-12T09:13:48;7.32;;;3.72;;
25962;SDS011;13760;52.588;13.406;2023-08-12T09:16:14;5.35;;;3.92;;
25962;SDS011;13760;52.588;13.406;2023-08-12T09:18:42;7.13;;;4.15;;
25962;SDS011;13760;52.588;13.406;2023-08-12T09:21:08;5.53;;;3.88;;
25962;SDS011;13760;52.588;13.406;2023-08-12T09:23:35;8.40;;;4.50;;
25962;SDS011;13760;52.588;13.406;2023-08-12T09:26:15;6.55;;;4.53;;
25962;SDS011;13760;52.588;13.406;2023-08-12T09:28:45;7.50;;;4.18;;
25962;SDS011;13760;52.588;13.406;2023-08-12T09:31:29;6.20;;;3.75;;
25962;SDS011;13760;52.588;13.406;2023-08-12T09:34:03;7.75;;;4.22;;
25962;SDS011;13760;52.588;13.406;2023-08-12T09:36:29;9.15;;;3.90;;
25962;SDS011;13760;52.588;13.406;2023-08-12T09:38:56;6.07;;;4.13;;
25962;SDS011;13760;52.588;13.406;2023-08-12T09:41:24;4.82;;;3.85;;
25962;SDS011;13760;52.588;13.406;2023-08-12T09:43:51;7.07;;;4.13;;
25962;SDS011;13760;52.588;13.406;2023-08-12T09:46:21;7.07;;;3.80;;
25962;SDS011;13760;52.588;13.406;2023-08-12T09:48:49;7.50;;;3.90;;
25962;SDS011;13760;52.588;13.406;2023-08-12T09:51:17;4.25;;;3.85;;
25962;SDS011;13760;52.588;13.406;2023-08-12T09:53:42;10.10;;;4.30;;
25962;SDS011;13760;52.588;13.406;2023-08-12T09:56:09;4.88;;;3.88;;
25962;SDS011;13760;52.588;13.406;2023-08-12T09:58:36;6.15;;;3.97;;
25962;SDS011;13760;52.588;13.406;2023-08-12T10:01:02;6.15;;;3.90;;
25962;SDS011;13760;52.588;13.406;2023-08-12T10:03:29;7.53;;;3.70;;
25962;SDS011;13760;52.588;13.406;2023-08-12T10:05:57;8.82;;;4.20;;
25962;SDS011;13760;52.588;13.406;2023-08-12T10:08:23;7.18;;;4.07;;
25962;SDS011;13760;52.588;13.406;2023-08-12T10:10:50;6.55;;;4.18;;
25962;SDS011;13760;52.588;13.406;2023-08-12T10:13:15;6.03;;;4.00;;
25962;SDS011;13760;52.588;13.406;2023-08-12T10:15:41;10.73;;;4.38;;
25962;SDS011;13760;52.588;13.406;2023-08-12T10:18:07;6.22;;;3.60;;
25962;SDS011;13760;52.588;13.406;2023-08-12T10:20:33;6.60;;;4.18;;
25962;SDS011;13760;52.588;13.406;2023-08-12T10:23:02;4.47;;;3.85;;
25962;SDS011;13760;52.588;13.406;2023-08-12T10:25:30;5.05;;;4.00;;
25962;SDS011;13760;52.588;13.406;2023-08-12T10:27:58;4.10;;;3.63;;
25962;SDS011;13760;52.588;13.406;2023-08-12T10:30:23;7.38;;;3.83;;
25962;SDS011;13760;52.588;13.406;2023-08-12T10:32:52;8.40;;;3.92;;
25962;SDS011;13760;52.588;13.406;2023-08-12T10:35:18;7.05;;;3.70;;
25962;SDS011;13760;52.588;13.406;2023-08-12T10:37:45;8.45;;;4.38;;
25962;SDS011;13760;52.588;13.406;2023-08-12T10:40:21;9.88;;;4.38;;
25962;SDS011;13760;52.588;13.406;2023-08-12T10:42:48;7.53;;;4.25;;
25962;SDS011;13760;52.588;13.406;2023-08-12T10:45:15;7.75;;;4.28;;
25962;SDS011;13760;52.588;13.406;2023-08-12T10:47:42;7.13;;;3.95;;
25962;SDS011;13760;52.588;13.406;2023-08-12T10:52:44;8.40;;;4.45;;
25962;SDS011;13760;52.588;13.406;2023-08-12T10:58:05;8.15;;;4.43;;
25962;SDS011;13760;52.588;13.406;2023-08-12T11:00:34;7.82;;;4.25;;
25962;SDS011;13760;52.588;13.406;2023-08-12T11:03:00;8.43;;;3.67;;
25962;SDS011;13760;52.588;13.406;2023-08-12T11:05:37;6.10;;;4.03;;
25962;SDS011;13760;52.588;13.406;2023-08-12T11:08:03;6.78;;;4.40;;
25962;SDS011;13760;52.588;13.406;2023-08-12T11:10:31;9.50;;;4.40;;
25962;SDS011;13760;52.588;13.406;2023-08-12T11:12:58;5.00;;;4.32;;
25962;SDS011;13760;52.588;13.406;2023-08-12T11:15:35;5.35;;;4.30;;
25962;SDS011;13760;52.588;13.406;2023-08-12T11:18:08;5.32;;;4.32;;
25962;SDS011;13760;52.588;13.406;2023-08-12T11:20:35;5.65;;;4.13;;
25962;SDS011;13760;52.588;13.406;2023-08-12T11:23:02;7.15;;;4.53;;
25962;SDS011;13760;52.588;13.406;2023-08-12T11:25:29;5.65;;;4.70;;
25962;SDS011;13760;52.588;13.406;2023-08-12T11:27:55;8.07;;;4.65;;
25962;SDS011;13760;52.588;13.406;2023-08-12T11:30:21;5.18;;;4.50;;
25962;SDS011;13760;52.588;13.406;2023-08-12T11:32:48;7.93;;;4.25;;
25962;SDS011;13760;52.588;13.406;2023-08-12T11:35:15;6.75;;;4.05;;
25962;SDS011;13760;52.588;13.406;2023-08-12T11:37:42;4.95;;;4.10;;
25962;SDS011;13760;52.588;13.406;2023-08-12T11:40:11;5.50;;;4.60;;
25962;SDS011;13760;52.588;13.406;2023-08-12T11:42:39;7.07;;;4.03;;
25962;SDS011;13760;52.588;13.406;2023-08-12T11:45:06;4.82;;;4.03;;
25962;SDS011;13760;52.588;13.406;2023-08-12T11:47:33;4.50;;;3.88;;
25962;SDS011;13760;52.588;13.406;2023-08-12T11:50:08;6.57;;;3.70;;
25962;SDS011;13760;52.588;13.406;2023-08-12T11:52:35;4.22;;;3.80;;
25962;SDS011;13760;52.588;13.406;2023-08-12T11:55:02;5.28;;;4.25;;
25962;SDS011;13760;52.588;13.406;2023-08-12T11:57:28;5.25;;;3.95;;
25962;SDS011;13760;52.588;13.406;2023-08-12T11:59:58;6.53;;;3.70;;
25962;SDS011;13760;52.588;13.406;2023-08-12T12:02:24;6.15;;;3.72;;
25962;SDS011;13760;52.588;13.406;2023-08-12T12:04:51;4.93;;;3.50;;
25962;SDS011;13760;52.588;13.406;2023-08-12T12:07:21;3.78;;;3.45;;
25962;SDS011;13760;52.588;13.406;2023-08-12T12:09:51;7.60;;;3.70;;
25962;SDS011;13760;52.588;13.406;2023-08-12T12:12:18;4.75;;;3.45;;
25962;SDS011;13760;52.588;13.406;2023-08-12T12:14:48;5.43;;;3.55;;
25962;SDS011;13760;52.588;13.406;2023-08-12T12:17:15;7.03;;;3.80;;
25962;SDS011;13760;52.588;13.406;2023-08-12T12:19:41;5.25;;;3.72;;
25962;SDS011;13760;52.588;13.406;2023-08-12T12:22:06;5.47;;;3.70;;
25962;SDS011;13760;52.588;13.406;2023-08-12T12:24:38;4.47;;;3.42;;
25962;SDS011;13760;52.588;13.406;2023-08-12T12:27:11;5.10;;;4.20;;
25962;SDS011;13760;52.588;13.406;2023-08-12T12:29:37;6.57;;;3.78;;
25962;SDS011;13760;52.588;13.406;2023-08-12T12:32:02;5.43;;;3.92;;
25962;SDS011;13760;52.588;13.406;2023-08-12T12:34:29;7.72;;;3.85;;
25962;SDS011;13760;52.588;13.406;2023-08-12T12:36:58;5.38;;;4.00;;
25962;SDS011;13760;52.588;13.406;2023-08-12T12:39:23;5.90;;;3.50;;
25962;SDS011;13760;52.588;13.406;2023-08-12T12:41:49;5.60;;;3.80;;
25962;SDS011;13760;52.588;13.406;2023-08-12T12:44:15;4.47;;;3.97;;
25962;SDS011;13760;52.588;13.406;2023-08-12T12:46:40;4.53;;;4.03;;
25962;SDS011;13760;52.588;13.406;2023-08-12T12:49:06;4.63;;;3.90;;
25962;SDS011;13760;52.588;13.406;2023-08-12T12:51:31;4.40;;;4.00;;
25962;SDS011;13760;52.588;13.406;2023-08-12T12:53:57;4.80;;;3.78;;
25962;SDS011;13760;52.588;13.406;2023-08-12T12:56:22;5.80;;;4.13;;
25962;SDS011;13760;52.588;13.406;2023-08-12T12:58:48;4.53;;;3.85;;
25962;SDS011;13760;52.588;13.406;2023-08-12T13:01:17;7.63;;;3.65;;
25962;SDS011;13760;52.588;13.406;2023-08-12T13:04:07;5.72;;;3.90;;
25962;SDS011;13760;52.588;13.406;2023-08-12T13:06:33;7.35;;;3.80;;
25962;SDS011;13760;52.588;13.406;2023-08-12T13:08:59;4.65;;;3.63;;
25962;SDS011;13760;52.588;13.406;2023-08-12T13:11:25;4.90;;;3.85;;
25962;SDS011;13760;52.588;13.406;2023-08-12T13:13:50;6.00;;;3.65;;
25962;SDS011;13760;52.588;13.406;2023-08-12T13:16:16;7.20;;;3.78;;
25962;SDS011;13760;52.588;13.406;2023-08-12T13:18:42;5.18;;;3.90;;
25962;SDS011;13760;52.588;13.406;2023-08-12T13:21:08;4.35;;;3.50;;
25962;SDS011;13760;52.588;13.406;2023-08-12T13:23:34;5.45;;;3.65;;
25962;SDS011;13760;52.588;13.406;2023-08-12T13:26:00;5.07;;;3.70;;
25962;SDS011;13760;52.588;13.406;2023-08-12T13:28:26;4.75;;;3.47;;
25962;SDS011;13760;52.588;13.406;2023-08-12T13:30:51;4.30;;;3.80;;
25962;SDS011;13760;52.588;13.406;2023-08-12T13:33:20;5.03;;;3.38;;
25962;SDS011;13760;52.588;13.406;2023-08-12T13:51:27;5.15;;;3.45;;
25962;SDS011;13760;52.588;13.406;2023-08-12T13:54:12;4.10;;;3.53;;
25962;SDS011;13760;52.588;13.406;2023-08-12T13:56:45;4.32;;;3.92;;
25962;SDS011;13760;52.588;13.406;2023-08-12T13:59:14;5.93;;;3.75;;
25962;SDS011;13760;52.588;13.406;2023-08-12T14:01:46;4.70;;;3.88;;
25962;SDS011;13760;52.588;13.406;2023-08-12T14:04:17;5.60;;;3.75;;
25962;SDS011;13760;52.588;13.406;2023-08-12T14:06:48;4.00;;;3.60;;
25962;SDS011;13760;52.588;13.406;2023-08-12T14:09:15;5.10;;;3.40;;
25962;SDS011;13760;52.588;13.406;2023-08-12T14:11:43;5.05;;;3.58;;
25962;SDS011;13760;52.588;13.406;2023-08-12T14:14:08;5.18;;;3.85;;
25962;SDS011;13760;52.588;13.406;2023-08-12T14:16:36;6.28;;;3.60;;
25962;SDS011;13760;52.588;13.406;2023-08-12T14:19:03;5.03;;;3.78;;
25962;SDS011;13760;52.588;13.406;2023-08-12T14:21:34;4.57;;;3.55;;
25962;SDS011;13760;52.588;13.406;2023-08-12T14:24:09;4.03;;;3.63;;
25962;SDS011;13760;52.588;13.406;2023-08-12T14:26:35;5.90;;;3.28;;
25962;SDS011;13760;52.588;13.406;2023-08-12T14:29:06;6.57;;;3.33;;
25962;SDS011;13760;52.588;13.406;2023-08-12T14:31:34;5.00;;;3.72;;
25962;SDS011;13760;52.588;13.406;2023-08-12T14:34:00;5.45;;;3.13;;
25962;SDS011;13760;52.588;13.406;2023-08-12T14:36:29;4.07;;;3.10;;
25962;SDS011;13760;52.588;13.406;2023-08-12T14:39:03;5.57;;;3.60;;
25962;SDS011;13760;52.588;13.406;2023-08-12T14:41:34;3.33;;;3.03;;
25962;SDS011;13760;52.588;13.406;2023-08-12T14:44:00;3.28;;;2.97;;
25962;SDS011;13760;52.588;13.406;2023-08-12T14:46:28;4.22;;;3.17;;
25962;SDS011;13760;52.588;13.406;2023-08-12T14:48:54;6.60;;;4.55;;
25962;SDS011;13760;52.588;13.406;2023-08-12T14:51:22;4.80;;;4.25;;
25962;SDS011;13760;52.588;13.406;2023-08-12T14:53:54;8.52;;;5.43;;